Time;durP1;ratioP1;P1;durP2;ratioP2;P2;SDS_P1;SDS_P2;PMS_P1;PMS_P2;Temp;Humidity;BMP_temperature;BMP_pressure;BME280_temperature;BME280_humidity;BME280_pressure;Samples;Min_cycle;Max_cycle;Signal;HPM_P1;HPM_P2
2023/05/11 00:02:11;;;;;;;1999.90;999.90;;;;;;;9.54;100.00;93786.88;5104802;28;20202;-58
2023/05/11 00:04:36;;;;;;;1999.90;999.90;;;;;;;9.55;100.00;93781.00;5105184;28;20180;-58
2023/05/11 00:07:01;;;;;;;1999.90;999.90;;;;;;;9.51;100.00;93772.19;5105744;28;20170;-58
2023/05/11 00:09:27;;;;;;;1999.90;999.90;;;;;;;9.47;100.00;93778.97;5105470;28;20190;-58
2023/05/11 00:11:52;;;;;;;1999.90;999.90;;;;;;;9.42;100.00;93779.47;5105542;28;20173;-58
2023/05/11 00:14:18;;;;;;;1999.90;999.90;;;;;;;9.44;100.00;93783.28;5105766;28;20170;-60
2023/05/11 00:16:43;;;;;;;1999.90;999.90;;;;;;;9.49;100.00;93771.88;5105301;28;20174;-58
2023/05/11 00:19:09;;;;;;;1999.90;999.90;;;;;;;9.51;100.00;93769.47;5105060;28;20201;-58
2023/05/11 00:21:35;;;;;;;1999.90;999.90;;;;;;;9.53;100.00;93772.53;5104712;28;20217;-58
2023/05/11 00:24:00;;;;;;;1999.90;999.90;;;;;;;9.52;100.00;93775.69;5104916;28;20241;-58
2023/05/11 00:26:26;;;;;;;1999.90;999.90;;;;;;;9.50;100.00;93776.13;5104853;28;20244;-58
2023/05/11 00:28:51;;;;;;;1999.90;999.90;;;;;;;9.51;100.00;93769.47;5105088;28;20182;-57
2023/05/11 00:31:17;;;;;;;1999.90;999.90;;;;;;;9.49;100.00;93766.41;5104875;28;20196;-58
2023/05/11 00:33:42;;;;;;;1999.90;999.90;;;;;;;9.46;100.00;93770.00;5105197;28;20180;-58
2023/05/11 00:36:07;;;;;;;1999.90;999.90;;;;;;;9.47;100.00;93768.81;5104670;28;20248;-58
2023/05/11 00:38:35;;;;;;;1999.90;999.90;;;;;;;9.48;100.00;93775.03;5104850;28;20240;-58
2023/05/11 00:41:00;;;;;;;1999.90;999.90;;;;;;;9.46;100.00;93778.19;5104524;28;20214;-58
2023/05/11 00:43:26;;;;;;;1999.90;999.90;;;;;;;9.47;100.00;93768.81;5104467;28;20170;-58
2023/05/11 00:45:52;;;;;;;1999.90;999.90;;;;;;;9.47;100.00;93768.06;5104469;28;20194;-58
2023/05/11 00:48:17;;;;;;;1999.90;999.90;;;;;;;9.50;100.00;93761.72;5105094;28;20192;-58
2023/05/11 00:50:43;;;;;;;1999.90;999.90;;;;;;;9.49;100.00;93766.41;5104298;28;20258;-58
2023/05/11 00:53:10;;;;;;;1999.90;999.90;;;;;;;9.44;100.00;93766.94;5104389;28;20170;-58
2023/05/11 00:55:36;;;;;;;1999.90;999.90;;;;;;;9.48;100.00;93753.97;5104755;28;20394;-58
2023/05/11 00:58:04;;;;;;;1999.90;999.90;;;;;;;9.49;100.00;93760.97;5104440;28;20174;-58
2023/05/11 01:00:29;;;;;;;1999.90;999.90;;;;;;;9.46;100.00;93756.38;5104173;28;20177;-58
2023/05/11 01:02:55;;;;;;;1999.90;999.90;;;;;;;9.47;100.00;93768.81;5104488;28;20178;-58
2023/05/11 01:05:20;;;;;;;1999.90;999.90;;;;;;;9.49;100.00;93755.53;5104675;28;20183;-58
2023/05/11 01:08:08;;;;;;;1999.90;999.90;;;;;;;9.48;100.00;93753.97;5104712;28;20173;-57
2023/05/11 01:10:57;;;;;;;1999.90;999.90;;;;;;;9.50;100.00;93756.25;5104510;28;20202;-58
2023/05/11 01:13:29;;;;;;;1999.90;999.90;;;;;;;9.50;100.00;93748.88;5098473;28;20188;-58
2023/05/11 01:15:55;;;;;;;1999.90;999.90;;;;;;;9.48;100.00;93753.97;5104812;28;20181;-58
2023/05/11 01:18:32;;;;;;;1999.90;999.90;;;;;;;9.51;100.00;93753.09;5104129;28;20192;-58
2023/05/11 01:20:59;;;;;;;1999.90;999.90;;;;;;;9.56;100.00;93755.31;5103940;28;20228;-58
2023/05/11 01:23:42;;;;;;;1999.90;999.90;;;;;;;9.55;100.00;93753.75;5104039;28;20178;-58
2023/05/11 01:26:32;;;;;;;1999.90;999.90;;;;;;;9.58;100.00;93746.69;5104053;28;20178;-58
2023/05/11 01:29:30;;;;;;;1999.90;999.90;;;;;;;9.58;100.00;93752.88;5104529;28;20175;-58
2023/05/11 01:31:58;;;;;;;1999.90;999.90;;;;;;;9.62;100.00;93742.63;5104455;28;20181;-58
2023/05/11 01:34:27;;;;;;;1999.90;999.90;;;;;;;9.64;100.00;93745.69;5103908;28;20180;-58
2023/05/11 01:37:22;;;;;;;1999.90;999.90;;;;;;;9.58;100.00;93742.00;5104417;28;20175;-58
2023/05/11 01:39:52;;;;;;;1999.90;999.90;;;;;;;9.56;100.00;93747.13;5095127;28;20188;-58
2023/05/11 01:42:34;;;;;;;1999.90;999.90;;;;;;;9.56;100.00;93741.69;5106253;28;20334;-59
2023/05/11 01:45:02;;;;;;;1999.90;999.90;;;;;;;9.56;100.00;93733.50;5108317;28;20238;-59
2023/05/11 01:47:29;;;;;;;1999.90;999.90;;;;;;;9.59;100.00;93738.06;5107784;28;20195;-58
2023/05/11 01:49:56;;;;;;;1999.90;999.90;;;;;;;9.50;100.00;93729.00;5107725;28;20192;-58
2023/05/11 01:52:24;;;;;;;1999.90;999.90;;;;;;;9.52;100.00;93732.84;5107795;28;20198;-61
2023/05/11 01:54:51;;;;;;;1999.90;999.90;;;;;;;9.50;100.00;93729.00;5107665;28;20170;-58
2023/05/11 01:57:18;;;;;;;1999.90;999.90;;;;;;;9.47;100.00;93736.09;5107776;28;20245;-58
2023/05/11 01:59:46;;;;;;;1999.90;999.90;;;;;;;9.46;100.00;93734.59;5108088;28;20254;-58
2023/05/11 02:02:13;;;;;;;1999.90;999.90;;;;;;;9.52;100.00;93738.31;5107549;28;20459;-58
2023/05/11 02:04:39;;;;;;;1999.90;999.90;;;;;;;9.51;100.00;93742.22;5107697;28;20174;-58
2023/05/11 02:07:07;;;;;;;1999.90;999.90;;;;;;;9.50;100.00;93732.50;5107492;28;20170;-58
2023/05/11 02:09:34;;;;;;;1999.90;999.90;;;;;;;9.51;100.00;93725.13;5107299;28;20172;-58
2023/05/11 02:12:01;;;;;;;1999.90;999.90;;;;;;;9.54;100.00;93730.44;5107920;28;20179;-58
2023/05/11 02:14:32;;;;;;;1999.90;999.90;;;;;;;9.58;100.00;93730.34;5107781;28;20177;-58
2023/05/11 02:16:59;;;;;;;1999.90;999.90;;;;;;;9.50;100.00;93729.78;5107910;28;20246;-58
2023/05/11 02:19:26;;;;;;;1999.90;999.90;;;;;;;9.55;100.00;93720.31;5106950;28;20186;-58
2023/05/11 02:21:53;;;;;;;1999.90;999.90;;;;;;;9.53;100.00;93731.66;5106987;28;20170;-57
2023/05/11 02:24:20;;;;;;;1999.90;999.90;;;;;;;9.50;100.00;93727.06;5107710;28;20199;-58
2023/05/11 02:26:45;;;;;;;1999.90;999.90;;;;;;;9.53;100.00;93728.94;5107162;28;20245;-58
2023/05/11 02:29:11;;;;;;;1999.90;999.90;;;;;;;9.51;100.00;93731.31;5107082;28;20184;-58
2023/05/11 02:31:43;;;;;;;1999.90;999.90;;;;;;;9.52;100.00;93727.41;5107477;28;20207;-58
2023/05/11 02:34:19;;;;;;;1999.90;999.90;;;;;;;9.47;100.00;93725.22;5107635;28;20173;-58
2023/05/11 02:36:47;;;;;;;1999.90;999.90;;;;;;;9.45;100.00;93727.63;5107538;28;20197;-58
2023/05/11 02:39:17;;;;;;;1999.90;999.90;;;;;;;9.43;100.00;93724.56;5106913;28;20251;-58
2023/05/11 02:41:45;;;;;;;1999.90;999.90;;;;;;;9.47;100.00;93724.47;5107387;28;20191;-58
2023/05/11 02:44:14;;;;;;;1999.90;999.90;;;;;;;9.47;100.00;93729.91;5106690;28;20185;-58
2023/05/11 02:46:41;;;;;;;1999.90;999.90;;;;;;;9.39;100.00;93721.19;5106829;28;20193;-58
2023/05/11 02:49:09;;;;;;;1999.90;999.90;;;;;;;9.38;100.00;93724.34;5106354;28;20182;-57
2023/05/11 02:51:40;;;;;;;1999.90;999.90;;;;;;;9.37;100.00;93726.28;5107057;28;20202;-58
2023/05/11 02:54:09;;;;;;;1999.90;999.90;;;;;;;9.34;100.00;93723.69;5106161;28;20171;-58
2023/05/11 02:56:35;;;;;;;1999.90;999.90;;;;;;;9.37;100.00;93728.28;5106530;28;20250;-58
2023/05/11 02:59:01;;;;;;;1999.90;999.90;;;;;;;9.35;100.00;93727.94;5106977;28;20180;-58
2023/05/11 03:01:27;;;;;;;1999.90;999.90;;;;;;;9.34;100.00;93724.47;5106361;28;20192;-58
2023/05/11 03:03:53;;;;;;;1999.90;999.90;;;;;;;9.31;100.00;93727.28;5106905;28;20179;-57
2023/05/11 03:06:18;;;;;;;1999.90;999.90;;;;;;;9.34;100.00;93721.75;5106681;28;20190;-58
2023/05/11 03:08:44;;;;;;;1999.90;999.90;;;;;;;9.28;100.00;93718.03;5106609;28;20187;-58
2023/05/11 03:11:13;;;;;;;1999.90;999.90;;;;;;;9.30;100.00;93726.53;5106760;28;20202;-58
2023/05/11 03:13:40;;;;;;;1999.90;999.90;;;;;;;9.31;100.00;93722.59;5106151;28;20252;-58
2023/05/11 03:16:07;;;;;;;1999.90;999.90;;;;;;;9.30;100.00;93726.53;5106202;28;20202;-58
2023/05/11 03:18:34;;;;;;;1999.90;999.90;;;;;;;9.18;100.00;93724.56;5106046;28;20180;-58
2023/05/11 03:21:01;;;;;;;1999.90;999.90;;;;;;;9.18;100.00;93727.28;5106139;28;20216;-58
2023/05/11 03:23:28;;;;;;;1999.90;999.90;;;;;;;9.19;100.00;93726.09;5105906;28;20194;-58
2023/05/11 03:25:54;;;;;;;1999.90;999.90;;;;;;;9.21;100.00;93723.69;5106539;28;20177;-58
2023/05/11 03:28:22;;;;;;;1999.90;999.90;;;;;;;9.16;100.00;93724.25;5106088;28;20181;-58
2023/05/11 03:30:50;;;;;;;1999.90;999.90;;;;;;;9.14;100.00;93723.91;5106010;28;20206;-58
2023/05/11 03:33:16;;;;;;;1999.90;999.90;;;;;;;9.15;100.00;93719.97;5106210;28;20178;-58
2023/05/11 03:35:42;;;;;;;1999.90;999.90;;;;;;;9.09;100.00;93723.69;5106214;28;20169;-58
2023/05/11 03:38:10;;;;;;;1999.90;999.90;;;;;;;9.11;100.00;93716.59;5105871;28;20468;-58
2023/05/11 03:40:37;;;;;;;1999.90;999.90;;;;;;;9.12;100.00;93714.63;5105697;28;20178;-58
2023/05/11 03:43:04;;;;;;;1999.90;999.90;;;;;;;9.04;100.00;93719.53;5105640;28;20260;-58
2023/05/11 03:45:30;;;;;;;1999.90;999.90;;;;;;;9.04;100.00;93714.06;5105454;28;20253;-58
2023/05/11 03:47:56;;;;;;;1999.90;999.90;;;;;;;9.08;100.00;93717.47;5106017;28;20180;-58
2023/05/11 03:50:22;;;;;;;1999.90;999.90;;;;;;;9.07;100.00;93715.94;5106065;28;20372;-59
2023/05/11 03:52:48;;;;;;;1999.90;999.90;;;;;;;9.00;100.00;93724.31;5105418;28;20173;-58
2023/05/11 03:55:14;;;;;;;1999.90;999.90;;;;;;;9.02;100.00;93716.47;5105979;28;20166;-57
2023/05/11 03:57:40;;;;;;;1999.90;999.90;;;;;;;9.05;100.00;93712.13;5105269;28;20225;-58
2023/05/11 04:00:07;;;;;;;1999.90;999.90;;;;;;;9.01;100.00;93716.91;5105347;28;20338;-57
2023/05/11 04:02:33;;;;;;;1999.90;999.90;;;;;;;9.04;100.00;93705.91;5105059;28;20165;-57
2023/05/11 04:04:59;;;;;;;1999.90;999.90;;;;;;;9.04;100.00;93708.63;5104869;28;20168;-57
2023/05/11 04:07:25;;;;;;;1999.90;999.90;;;;;;;9.03;100.00;93707.13;5105547;28;20243;-58
2023/05/11 04:09:52;;;;;;;1999.90;999.90;;;;;;;9.04;100.00;93703.19;5105172;28;20181;-56
2023/05/11 04:12:18;;;;;;;1999.90;999.90;;;;;;;9.06;100.00;93706.25;5105488;28;20179;-59
2023/05/11 04:14:43;;;;;;;1999.90;999.90;;;;;;;9.10;100.00;93706.91;5105470;28;20176;-58
2023/05/11 04:17:09;;;;;;;1999.90;999.90;;;;;;;9.07;100.00;93707.03;5104941;28;20240;-57
2023/05/11 04:19:34;;;;;;;1999.90;999.90;;;;;;;9.03;100.00;93701.66;5105496;28;20185;-58
2023/05/11 04:22:00;;;;;;;1999.90;999.90;;;;;;;8.96;100.00;93707.31;5104649;28;20174;-58
2023/05/11 04:24:25;;;;;;;1999.90;999.90;;;;;;;9.01;100.00;93704.09;5105280;28;20214;-58
2023/05/11 04:26:55;;;;;;;1999.90;999.90;;;;;;;9.01;100.00;93714.19;5104743;28;20173;-58
2023/05/11 04:29:20;;;;;;;1999.90;999.90;;;;;;;9.05;100.00;93707.47;5104988;28;20203;-58
2023/05/11 04:31:46;;;;;;;1999.90;999.90;;;;;;;9.00;100.00;93710.69;5104988;28;20205;-58
2023/05/11 04:34:11;;;;;;;1999.90;999.90;;;;;;;9.04;100.00;93716.81;5104623;28;20179;-58
2023/05/11 04:36:36;;;;;;;1999.90;999.90;;;;;;;9.06;100.00;93711.69;5105361;28;20172;-58
2023/05/11 04:39:03;;;;;;;1999.90;999.90;;;;;;;9.11;100.00;93718.56;5105376;28;20173;-58
2023/05/11 04:41:28;;;;;;;1999.90;999.90;;;;;;;9.23;100.00;93715.84;5104716;28;20172;-59
2023/05/11 04:43:54;;;;;;;1999.90;999.90;;;;;;;9.17;100.00;93723.03;5104366;28;20204;-59
2023/05/11 04:46:19;;;;;;;1999.90;999.90;;;;;;;9.21;100.00;93717.47;5104217;28;20185;-59
2023/05/11 04:48:45;;;;;;;1999.90;999.90;;;;;;;9.20;100.00;93714.00;5104058;28;20204;-58
2023/05/11 04:51:10;;;;;;;1999.90;999.90;;;;;;;9.22;100.00;93722.47;5104310;28;20210;-58
2023/05/11 04:53:35;;;;;;;1999.90;999.90;;;;;;;9.19;100.00;93723.38;5104311;28;20176;-59
2023/05/11 04:56:01;;;;;;;1999.90;999.90;;;;;;;9.17;100.00;93720.31;5104227;28;20172;-58
2023/05/11 04:58:26;;;;;;;1999.90;999.90;;;;;;;9.20;100.00;93727.63;5104769;28;20194;-59
2023/05/11 05:00:52;;;;;;;1999.90;999.90;;;;;;;9.15;100.00;93725.41;5104175;28;20175;-58
2023/05/11 05:03:17;;;;;;;1999.90;999.90;;;;;;;9.14;100.00;93731.31;5104130;28;20193;-58
2023/05/11 05:05:43;;;;;;;1999.90;999.90;;;;;;;9.20;100.00;93724.88;5104154;28;20172;-58
2023/05/11 05:08:08;;;;;;;1999.90;999.90;;;;;;;9.20;100.00;93727.63;5104070;28;20176;-58
2023/05/11 05:10:33;;;;;;;1999.90;999.90;;;;;;;9.21;100.00;93723.69;5104340;28;20211;-59
2023/05/11 05:12:59;;;;;;;1999.90;999.90;;;;;;;9.26;100.00;93722.38;5103941;28;20169;-59
2023/05/11 05:15:24;;;;;;;1999.90;999.90;;;;;;;9.31;100.00;93721.84;5103760;28;20210;-59
2023/05/11 05:17:49;;;;;;;1999.90;999.90;;;;;;;9.17;100.00;93728.47;5103916;28;20169;-58
2023/05/11 05:20:15;;;;;;;1999.90;999.90;;;;;;;9.18;100.00;93721.81;5103550;28;20314;-58
2023/05/11 05:22:40;;;;;;;1999.90;999.90;;;;;;;9.21;100.00;93723.69;5103830;28;20176;-58
2023/05/11 05:25:07;;;;;;;1999.90;999.90;;;;;;;9.22;100.00;93724.47;5103864;28;20179;-58
2023/05/11 05:27:32;;;;;;;1999.90;999.90;;;;;;;9.24;100.00;93711.94;5103703;28;20168;-58
2023/05/11 05:29:58;;;;;;;1999.90;999.90;;;;;;;9.17;100.00;93723.03;5103735;28;20197;-58
2023/05/11 05:32:23;;;;;;;1999.90;999.90;;;;;;;9.18;100.00;93718.34;5103601;28;20232;-58
2023/05/11 05:34:48;;;;;;;1999.90;999.90;;;;;;;9.17;100.00;93724.97;5103732;28;20182;-58
2023/05/11 05:37:14;;;;;;;1999.90;999.90;;;;;;;9.16;100.00;93726.19;5103659;28;20187;-58
2023/05/11 05:39:39;;;;;;;1999.90;999.90;;;;;;;9.17;100.00;93723.03;5103772;28;20177;-56
2023/05/11 05:42:05;;;;;;;1999.90;999.90;;;;;;;9.11;100.00;93727.47;5103706;28;20173;-57
2023/05/11 05:44:30;;;;;;;1999.90;999.90;;;;;;;9.22;100.00;93724.47;5103691;28;20207;-58
2023/05/11 05:46:55;;;;;;;1999.90;999.90;;;;;;;9.26;100.00;93717.69;5103642;28;20199;-58
2023/05/11 05:49:21;;;;;;;1999.90;999.90;;;;;;;9.22;100.00;93727.19;5104237;28;20174;-57
2023/05/11 05:51:46;;;;;;;1999.90;999.90;;;;;;;9.20;100.00;93727.63;5104186;28;20205;-58
2023/05/11 05:54:12;;;;;;;1999.90;999.90;;;;;;;9.17;100.00;93723.03;5103710;28;20204;-57
2023/05/11 05:56:39;;;;;;;1999.90;999.90;;;;;;;9.21;100.00;93729.13;5103861;28;20201;-57
2023/05/11 05:59:05;;;;;;;1999.90;999.90;;;;;;;9.16;100.00;93732.41;5103473;28;20201;-58
2023/05/11 06:01:30;;;;;;;1999.90;999.90;;;;;;;9.11;100.00;93735.66;5103988;28;20457;-57
2023/05/11 06:03:56;;;;;;;1999.90;999.90;;;;;;;9.12;100.00;93734.47;5103464;28;20176;-58
2023/05/11 06:06:21;;;;;;;1999.90;999.90;;;;;;;9.16;100.00;93731.63;5103425;28;20196;-58
2023/05/11 06:08:46;;;;;;;1999.90;999.90;;;;;;;9.09;100.00;93727.16;5103552;28;20219;-58
2023/05/11 06:11:12;;;;;;;1999.90;999.90;;;;;;;9.11;100.00;93740.34;5103562;28;20203;-58
2023/05/11 06:13:37;;;;;;;1999.90;999.90;;;;;;;9.13;100.00;93738.72;5103219;28;20173;-58
2023/05/11 06:16:02;;;;;;;1999.90;999.90;;;;;;;9.16;100.00;93737.09;5103314;28;20231;-59
2023/05/11 06:18:28;;;;;;;1999.90;999.90;;;;;;;9.18;100.00;93734.69;5103957;28;20180;-58
2023/05/11 06:20:53;;;;;;;1999.90;999.90;;;;;;;9.22;100.00;93736.09;5102930;28;20236;-57
2023/05/11 06:23:19;;;;;;;1999.90;999.90;;;;;;;9.23;100.00;93751.25;5104089;28;20302;-57
2023/05/11 06:25:44;;;;;;;1999.90;999.90;;;;;;;9.24;100.00;93738.38;5103117;28;20219;-58
2023/05/11 06:28:10;;;;;;;1999.90;999.90;;;;;;;9.20;100.00;93743.94;5105342;28;20196;-58
2023/05/11 06:30:35;;;;;;;1999.90;999.90;;;;;;;9.14;100.00;93748.41;5107235;28;20200;-58
2023/05/11 06:33:01;;;;;;;1999.90;999.90;;;;;;;9.22;100.00;93752.44;5107130;28;20180;-58
2023/05/11 06:35:26;;;;;;;1999.90;999.90;;;;;;;9.27;100.00;93751.91;5107306;28;20170;-58
2023/05/11 06:37:51;;;;;;;1999.90;999.90;;;;;;;9.30;100.00;93753.78;5107417;28;20174;-57
2023/05/11 06:40:17;;;;;;;1999.90;999.90;;;;;;;9.29;100.00;93757.69;5107259;28;20206;-57
2023/05/11 06:42:42;;;;;;;1999.90;999.90;;;;;;;9.31;100.00;93754.53;5106755;28;20177;-58
2023/05/11 06:45:08;;;;;;;1999.90;999.90;;;;;;;9.29;100.00;93763.13;5106783;28;20373;-57
2023/05/11 06:47:34;;;;;;;1999.90;999.90;;;;;;;9.28;100.00;93760.84;5106150;28;20176;-58
2023/05/11 06:49:59;;;;;;;1999.90;999.90;;;;;;;9.23;100.00;93772.28;5106751;28;20200;-58
2023/05/11 06:52:25;;;;;;;1999.90;999.90;;;;;;;9.36;100.00;93762.91;5106602;28;20173;-56
2023/05/11 06:54:50;;;;;;;1999.90;999.90;;;;;;;9.26;100.00;93769.44;5106738;28;20210;-57
2023/05/11 06:57:15;;;;;;;1999.90;999.90;;;;;;;9.22;100.00;93779.66;5106967;28;20174;-57
2023/05/11 06:59:41;;;;;;;1999.90;999.90;;;;;;;9.30;100.00;93774.78;5106604;28;20174;-58
2023/05/11 07:02:06;;;;;;;1999.90;999.90;;;;;;;9.31;100.00;93779.81;5106440;28;20195;-58
2023/05/11 07:04:32;;;;;;;1999.90;999.90;;;;;;;9.29;100.00;93784.91;5106552;28;20197;-57
2023/05/11 07:06:57;;;;;;;1999.90;999.90;;;;;;;9.34;100.00;93781.66;5106848;28;20178;-58
2023/05/11 07:09:22;;;;;;;1999.90;999.90;;;;;;;9.35;100.00;93782.41;5106689;28;20177;-57
2023/05/11 07:11:48;;;;;;;1999.90;999.90;;;;;;;9.37;100.00;93785.47;5106725;28;20362;-57
2023/05/11 07:14:14;;;;;;;1999.90;999.90;;;;;;;9.37;100.00;93788.19;5106728;28;20202;-54
2023/05/11 07:16:39;;;;;;;1999.90;999.90;;;;;;;9.45;100.00;93786.78;5106532;28;20226;-56
2023/05/11 07:19:07;;;;;;;1999.90;999.90;;;;;;;9.47;100.00;93779.69;5106578;28;20186;-56
2023/05/11 07:21:33;;;;;;;1999.90;999.90;;;;;;;9.45;100.00;93787.56;5106006;28;20228;-57
2023/05/11 07:23:58;;;;;;;1999.90;999.90;;;;;;;9.44;100.00;93788.00;5105898;28;20174;-57
2023/05/11 07:26:24;;;;;;;1999.90;999.90;;;;;;;9.37;100.00;93797.13;5105899;28;20181;-57
2023/05/11 07:28:49;;;;;;;1999.90;999.90;;;;;;;9.38;100.00;93795.94;5105878;28;20238;-57
2023/05/11 07:31:15;;;;;;;1999.90;999.90;;;;;;;9.37;100.00;93788.94;5105465;28;20226;-57
2023/05/11 07:33:40;;;;;;;1999.90;999.90;;;;;;;9.52;100.00;93792.03;5105758;28;20244;-57
2023/05/11 07:36:06;;;;;;;1999.90;999.90;;;;;;;9.47;100.00;93796.03;5105724;28;20180;-57
2023/05/11 07:38:31;;;;;;;1999.90;999.90;;;;;;;9.61;100.00;93792.91;5105664;28;20180;-57
2023/05/11 07:40:57;;;;;;;1999.90;999.90;;;;;;;9.72;100.00;93787.88;5105504;28;20183;-57
2023/05/11 07:43:22;;;;;;;1999.90;999.90;;;;;;;9.67;100.00;93802.06;5105670;28;20249;-57
2023/05/11 07:45:47;;;;;;;1999.90;999.90;;;;;;;9.68;100.00;93805.53;5105458;28;20199;-57
2023/05/11 07:48:13;;;;;;;1999.90;999.90;;;;;;;9.84;100.00;93802.72;5105619;28;20198;-56
2023/05/11 07:50:38;;;;;;;1999.90;999.90;;;;;;;10.03;100.00;93807.91;5105317;28;20225;-56
2023/05/11 07:53:06;;;;;;;1999.90;999.90;;;;;;;10.05;100.00;93813.72;5106221;28;20179;-57
2023/05/11 07:55:32;;;;;;;1999.90;999.90;;;;;;;10.17;100.00;93814.94;5105481;28;20172;-57
2023/05/11 07:57:57;;;;;;;1999.90;999.90;;;;;;;10.18;100.00;93815.69;5105404;28;20174;-58
2023/05/11 08:00:22;;;;;;;1999.90;999.90;;;;;;;10.22;100.00;93811.63;5105193;28;20242;-57
2023/05/11 08:02:48;;;;;;;1999.90;999.90;;;;;;;10.10;100.00;93815.91;5105229;28;20219;-57
2023/05/11 08:05:13;;;;;;;1999.90;999.90;;;;;;;10.19;100.00;93822.69;5105387;28;20169;-57
2023/05/11 08:07:38;;;;;;;1999.90;999.90;;;;;;;10.14;100.00;93838.38;5105131;28;20179;-57
2023/05/11 08:10:04;;;;;;;1999.90;999.90;;;;;;;10.20;100.00;93835.09;5104923;28;20202;-56
2023/05/11 08:12:30;;;;;;;1999.90;999.90;;;;;;;10.14;100.00;93849.28;5105041;28;20176;-57
2023/05/11 08:14:55;;;;;;;1999.90;999.90;;;;;;;10.12;100.00;93855.63;5105524;28;20178;-57
2023/05/11 08:17:21;;;;;;;1999.90;999.90;;;;;;;10.18;100.00;93859.31;5105518;28;20202;-56
2023/05/11 08:19:46;;;;;;;1999.90;999.90;;;;;;;10.27;100.00;93867.63;5104693;28;20237;-57
2023/05/11 08:22:12;;;;;;;1999.90;999.90;;;;;;;10.46;100.00;93864.66;5105654;28;20169;-57
2023/05/11 08:24:37;;;;;;;1999.90;999.90;;;;;;;10.52;100.00;93862.88;5105248;28;20174;-57
2023/05/11 08:27:03;;;;;;;1999.90;999.90;;;;;;;10.54;100.00;93870.63;5105376;28;20183;-59
2023/05/11 08:29:29;;;;;;;1999.90;999.90;;;;;;;10.53;100.00;93880.03;5104617;28;20168;-58
2023/05/11 08:31:54;;;;;;;1999.90;999.90;;;;;;;10.57;100.00;93888.84;5104306;28;20265;-57
2023/05/11 08:34:21;;;;;;;1999.90;999.90;;;;;;;10.41;100.00;93905.38;5104552;28;20183;-57
2023/05/11 08:36:46;;;;;;;1999.90;999.90;;;;;;;10.44;100.00;93909.94;5104557;28;20171;-58
2023/05/11 08:39:11;;;;;;;1999.90;999.90;;;;;;;10.44;100.00;93912.66;5104560;28;20180;-57
2023/05/11 08:41:37;;;;;;;1999.90;999.90;;;;;;;10.55;100.00;93927.50;5104458;28;20183;-58
2023/05/11 08:44:02;;;;;;;1999.90;999.90;;;;;;;10.45;100.00;93938.78;5104365;28;20255;-59
2023/05/11 08:46:29;;;;;;;1999.90;999.90;;;;;;;10.64;100.00;93937.75;5104980;28;20173;-58
2023/05/11 08:48:57;;;;;;;1999.90;999.90;;;;;;;10.74;100.00;93950.31;5104789;28;20200;-57
2023/05/11 08:51:23;;;;;;;1999.90;999.90;;;;;;;10.78;100.00;93956.41;5103826;28;20211;-58
2023/05/11 08:53:48;;;;;;;1999.90;999.90;;;;;;;10.75;100.00;93990.06;5104754;28;20182;-57
2023/05/11 08:56:14;;;;;;;1999.90;999.90;;;;;;;10.75;100.00;94003.72;5104154;28;20244;-57
2023/05/11 08:58:41;;;;;;;1999.90;999.90;;;;;;;10.86;100.00;94021.28;5104225;28;20176;-57
2023/05/11 09:01:09;;;;;;;1999.90;999.90;;;;;;;10.82;100.00;94067.03;5104795;28;20241;-59
2023/05/11 09:03:35;;;;;;;1999.90;999.90;;;;;;;11.11;100.00;94066.94;5104170;28;20186;-58
2023/05/11 09:06:04;;;;;;;1999.90;999.90;;;;;;;11.42;100.00;94068.63;5104271;28;20259;-58
2023/05/11 09:08:30;;;;;;;1999.90;999.90;;;;;;;11.44;100.00;94084.59;5104542;28;20179;-58
2023/05/11 09:10:57;;;;;;;1999.90;999.90;;;;;;;11.28;100.00;94125.72;5104295;28;20200;-58
2023/05/11 09:13:23;;;;;;;1999.90;999.90;;;;;;;11.31;100.00;94135.78;5104507;28;20175;-57
2023/05/11 09:15:48;;;;;;;1999.90;999.90;;;;;;;11.26;100.00;94158.19;5104710;28;20183;-58
2023/05/11 09:18:14;;;;;;;1999.90;999.90;;;;;;;11.33;100.00;94155.25;5104005;28;20243;-58
2023/05/11 09:20:42;;;;;;;1999.90;999.90;;;;;;;11.25;100.00;94164.88;5103943;28;20224;-58
2023/05/11 09:23:07;;;;;;;1999.90;999.90;;;;;;;11.23;100.00;94175.47;5104447;28;20172;-59
2023/05/11 09:25:33;;;;;;;1999.90;999.90;;;;;;;11.12;100.00;94188.69;5104403;28;20176;-58
2023/05/11 09:27:59;;;;;;;1999.90;999.90;;;;;;;11.35;100.00;94193.81;5104331;28;20204;-58
2023/05/11 09:30:25;;;;;;;1999.90;999.90;;;;;;;11.46;100.00;94164.19;5103757;28;20211;-59
2023/05/11 09:32:58;;;;;;;1999.90;999.90;;;;;;;11.32;100.00;94181.03;5104274;28;20180;-58
2023/05/11 09:35:24;;;;;;;1999.90;999.90;;;;;;;11.36;100.00;94181.72;5103916;28;20172;-59
2023/05/11 09:38:02;;;;;;;1999.90;999.90;;;;;;;11.34;100.00;94189.56;5103682;28;20172;-58
2023/05/11 09:40:28;;;;;;;1999.90;999.90;;;;;;;11.49;100.00;94179.72;5104382;28;20178;-58
2023/05/11 09:42:54;;;;;;;1999.90;999.90;;;;;;;11.52;100.00;94173.38;5103746;28;20172;-58
2023/05/11 09:45:45;;;;;;;1999.90;999.90;;;;;;;11.51;100.00;94172.59;5104188;28;20196;-58
2023/05/11 09:48:20;;;;;;;1999.90;999.90;;;;;;;11.44;100.00;94178.28;5103740;28;20171;-58
2023/05/11 09:50:49;;;;;;;1999.90;999.90;;;;;;;11.43;100.00;94171.31;5104031;28;20207;-58
2023/05/11 09:53:16;;;;;;;1999.90;999.90;;;;;;;11.44;100.00;94180.28;5103612;28;20203;-58
2023/05/11 09:55:52;;;;;;;1999.90;999.90;;;;;;;11.49;100.00;94171.50;5104142;28;20172;-58
2023/05/11 09:58:18;;;;;;;1999.90;999.90;;;;;;;11.33;100.00;94188.03;5103579;28;20172;-58
2023/05/11 10:00:51;;;;;;;1999.90;999.90;;;;;;;11.31;100.00;94201.38;5103549;28;20211;-58
2023/05/11 10:03:16;;;;;;;1999.90;999.90;;;;;;;11.17;100.00;94223.66;5105785;28;20208;-58
2023/05/11 10:05:58;;;;;;;1999.90;999.90;;;;;;;11.18;100.00;94247.06;5108017;28;20235;-58
2023/05/11 10:08:37;;;;;;;1999.90;999.90;;;;;;;11.33;100.00;94229.03;5107957;28;20203;-59
2023/05/11 10:11:05;;;;;;;1999.90;999.90;;;;;;;11.37;100.00;94224.22;5107613;28;20221;-58
2023/05/11 10:13:31;;;;;;;1999.90;999.90;;;;;;;11.39;100.00;94228.06;5107294;28;20187;-58
2023/05/11 10:15:58;;;;;;;1999.90;999.90;;;;;;;11.36;100.00;94222.69;5107807;28;20175;-58
2023/05/11 10:18:23;;;;;;;1999.90;999.90;;;;;;;11.33;100.00;94229.03;5107265;28;20180;-58
2023/05/11 10:20:50;;;;;;;1999.90;999.90;;;;;;;11.28;100.00;94229.56;5106973;28;20283;-58
2023/05/11 10:23:18;;;;;;;1999.90;999.90;;;;;;;11.24;100.00;94226.16;5107184;28;20168;-58
2023/05/11 10:25:44;;;;;;;1999.90;999.90;;;;;;;11.26;100.00;94221.78;5107570;28;20196;-58
2023/05/11 10:28:10;;;;;;;1999.90;999.90;;;;;;;11.23;100.00;94230.13;5107318;28;20171;-58
2023/05/11 10:30:36;;;;;;;1999.90;999.90;;;;;;;11.23;100.00;94227.38;5107307;28;20196;-58
2023/05/11 10:33:01;;;;;;;1999.90;999.90;;;;;;;11.24;100.00;94226.16;5107013;28;20169;-58
2023/05/11 10:35:27;;;;;;;1999.90;999.90;;;;;;;11.30;100.00;94227.16;5107379;28;20175;-59
2023/05/11 10:37:53;;;;;;;1999.90;999.90;;;;;;;11.33;100.00;94223.56;5106869;28;20174;-58
2023/05/11 10:40:19;;;;;;;1999.90;999.90;;;;;;;11.33;100.00;94216.13;5106794;28;20175;-58
2023/05/11 10:42:50;;;;;;;1999.90;999.90;;;;;;;11.29;100.00;94217.44;5106783;28;20168;-58
2023/05/11 10:45:28;;;;;;;1999.90;999.90;;;;;;;11.26;100.00;94221.03;5106667;28;20246;-57
2023/05/11 10:48:04;;;;;;;1999.90;999.90;;;;;;;11.37;100.00;94205.84;5107204;28;20164;-58
2023/05/11 10:51:04;;;;;;;1999.90;999.90;;;;;;;11.29;100.00;94210.00;5106514;28;20203;-58
2023/05/11 10:54:03;;;;;;;1999.90;999.90;;;;;;;11.38;100.00;94203.88;5106408;28;20190;-58